Time;durP1;ratioP1;P1;durP2;ratioP2;P2;SDS_P1;SDS_P2;PMS_P1;PMS_P2;Temp;Humidity;BMP_temperature;BMP_pressure;BME280_temperature;BME280_humidity;BME280_pressure;Samples;Min_cycle;Max_cycle;Signal;HPM_P1;HPM_P2
2022/12/14 00:01:18;;;;;;;18.50;12.93;;;0.70;99.90;;;;;;5094552;28;20189;-72
2022/12/14 00:03:44;;;;;;;17.93;13.57;;;0.70;99.90;;;;;;5094928;28;20175;-72
2022/12/14 00:06:15;;;;;;;19.03;13.70;;;0.60;99.90;;;;;;5094335;28;20419;-72
2022/12/14 00:08:41;;;;;;;21.83;14.50;;;0.60;99.90;;;;;;5094252;28;20387;-72
2022/12/14 00:11:08;;;;;;;19.00;12.53;;;0.60;99.90;;;;;;5094326;28;21031;-72
2022/12/14 00:13:34;;;;;;;14.80;12.00;;;0.60;99.90;;;;;;5093211;28;20639;-70
2022/12/14 00:16:10;;;;;;;16.43;13.30;;;0.70;99.90;;;;;;5081935;28;20399;-72
2022/12/14 00:18:36;;;;;;;16.30;12.97;;;0.70;99.90;;;;;;5073146;28;20510;-72
2022/12/14 00:21:07;;;;;;;18.73;14.50;;;0.70;99.90;;;;;;5076038;28;20463;-72
2022/12/14 00:23:33;;;;;;;20.60;12.97;;;0.30;99.90;;;;;;5092737;28;20184;-73
2022/12/14 00:26:25;;;;;;;19.00;13.17;;;0.30;99.90;;;;;;5096005;28;20459;-73
2022/12/14 00:28:53;;;;;;;19.10;13.80;;;0.60;99.90;;;;;;5094020;28;20423;-73
2022/12/14 00:31:19;;;;;;;17.70;12.93;;;0.90;99.90;;;;;;5093576;28;20977;-73
2022/12/14 00:33:46;;;;;;;18.00;13.43;;;0.80;99.90;;;;;;5095875;28;20771;-72
2022/12/14 00:36:11;;;;;;;18.10;13.20;;;0.80;99.90;;;;;;5095156;28;20406;-72
2022/12/14 00:38:38;;;;;;;18.20;13.63;;;0.80;99.90;;;;;;5093792;28;20410;-72
2022/12/14 00:41:04;;;;;;;18.70;13.60;;;0.70;99.90;;;;;;5093915;28;20433;-72
2022/12/14 00:43:30;;;;;;;16.60;13.60;;;0.60;99.90;;;;;;5094286;28;20417;-72
2022/12/14 00:45:56;;;;;;;16.90;13.17;;;0.60;99.90;;;;;;5093821;28;20403;-71
2022/12/14 00:48:23;;;;;;;16.77;14.27;;;0.70;99.90;;;;;;5092609;28;20788;-72
2022/12/14 00:50:50;;;;;;;17.70;13.90;;;0.70;99.90;;;;;;5093769;28;20262;-73
2022/12/14 00:53:17;;;;;;;17.60;14.10;;;0.80;99.90;;;;;;5091965;28;20410;-74
2022/12/14 00:55:44;;;;;;;19.60;14.93;;;0.80;99.90;;;;;;5093596;28;20415;-72
2022/12/14 00:58:12;;;;;;;15.10;12.70;;;0.70;99.90;;;;;;5094138;28;20449;-73
2022/12/14 01:00:38;;;;;;;15.97;14.27;;;0.80;99.90;;;;;;5092323;28;20435;-73
2022/12/14 01:03:04;;;;;;;15.77;12.87;;;0.70;99.90;;;;;;5093722;28;20789;-74
2022/12/14 01:05:30;;;;;;;26.07;14.90;;;0.70;99.90;;;;;;5093885;28;20418;-72
2022/12/14 01:07:56;;;;;;;22.33;15.37;;;0.70;99.90;;;;;;5093267;28;20490;-72
2022/12/14 01:10:21;;;;;;;24.80;16.33;;;0.70;99.90;;;;;;5084804;28;20676;-73
2022/12/14 01:12:47;;;;;;;21.67;14.13;;;0.90;99.90;;;;;;5053234;28;20261;-72
2022/12/14 01:15:12;;;;;;;20.40;14.80;;;1.00;99.90;;;;;;5053886;28;20190;-72
2022/12/14 01:17:38;;;;;;;19.93;15.03;;;1.10;99.90;;;;;;5052076;28;20169;-73
2022/12/14 01:20:04;;;;;;;18.63;12.90;;;1.20;99.90;;;;;;5053599;28;20237;-72
2022/12/14 01:22:30;;;;;;;18.70;14.20;;;1.00;99.90;;;;;;5057446;28;20409;-73
2022/12/14 01:24:56;;;;;;;15.67;13.03;;;1.10;99.90;;;;;;5091506;28;20552;-73
2022/12/14 01:27:21;;;;;;;14.60;13.00;;;1.20;99.90;;;;;;5093955;28;20573;-72
2022/12/14 01:29:47;;;;;;;21.23;14.70;;;1.20;99.90;;;;;;5093363;28;20691;-71
2022/12/14 01:32:12;;;;;;;17.43;13.70;;;1.20;99.90;;;;;;5093043;28;20200;-73
2022/12/14 01:34:38;;;;;;;20.90;13.50;;;1.30;99.90;;;;;;5056031;28;20543;-71
2022/12/14 01:37:03;;;;;;;20.33;14.70;;;0.90;99.90;;;;;;5054182;28;20170;-72
2022/12/14 01:39:30;;;;;;;18.20;12.87;;;0.60;99.90;;;;;;5056697;28;20193;-72
2022/12/14 01:41:55;;;;;;;17.20;12.90;;;0.80;99.90;;;;;;5057164;28;20209;-72
2022/12/14 01:44:21;;;;;;;22.60;15.07;;;0.90;99.90;;;;;;5057193;28;20404;-72
2022/12/14 01:47:01;;;;;;;19.87;13.90;;;1.00;99.90;;;;;;5057426;28;20170;-72
2022/12/14 01:49:48;;;;;;;18.23;14.40;;;0.90;99.90;;;;;;5057070;28;20277;-73
2022/12/14 01:52:18;;;;;;;24.20;15.50;;;0.90;99.90;;;;;;5057201;28;20523;-72
2022/12/14 01:55:25;;;;;;;23.70;14.60;;;0.80;99.90;;;;;;5086031;28;20403;-71
2022/12/14 01:58:08;;;;;;;18.93;14.63;;;0.90;99.90;;;;;;5054694;28;20800;-73
2022/12/14 02:00:34;;;;;;;18.60;15.00;;;1.00;99.90;;;;;;5094864;28;20534;-72
2022/12/14 02:03:08;;;;;;;17.50;13.70;;;1.10;99.90;;;;;;5097211;28;20892;-70
2022/12/14 02:05:35;;;;;;;16.20;13.37;;;0.90;99.90;;;;;;5097305;28;20236;-73
2022/12/14 02:08:02;;;;;;;18.60;14.40;;;0.80;99.90;;;;;;5096960;28;20407;-70
2022/12/14 02:10:30;;;;;;;19.77;13.80;;;0.80;99.90;;;;;;5088086;28;20455;-73
2022/12/14 02:13:15;;;;;;;16.10;13.40;;;0.70;99.90;;;;;;5076753;28;20405;-72
2022/12/14 02:15:42;;;;;;;17.33;13.83;;;0.70;99.90;;;;;;5077485;28;21010;-72
2022/12/14 02:18:13;;;;;;;19.17;14.70;;;0.60;99.90;;;;;;5076276;28;20403;-72
2022/12/14 02:21:10;;;;;;;18.70;15.10;;;0.50;99.90;;;;;;5075192;28;20465;-72
2022/12/14 02:23:51;;;;;;;18.47;14.20;;;0.50;99.90;;;;;;5076230;28;20449;-73
2022/12/14 02:26:32;;;;;;;17.40;14.60;;;0.40;99.90;;;;;;5096862;28;20380;-73
2022/12/14 02:29:20;;;;;;;19.33;16.30;;;0.60;99.90;;;;;;5096767;28;20474;-71
2022/12/14 02:32:04;;;;;;;18.77;16.33;;;0.50;99.90;;;;;;5097282;28;20431;-72
2022/12/14 02:34:53;;;;;;;18.80;15.10;;;0.60;99.90;;;;;;5097969;28;20390;-73
2022/12/14 02:37:25;;;;;;;19.60;15.27;;;0.60;99.90;;;;;;5098059;28;20463;-73
2022/12/14 02:40:03;;;;;;;22.10;16.10;;;0.70;99.90;;;;;;5096044;28;20423;-72
2022/12/14 02:42:50;;;;;;;21.40;15.27;;;0.80;99.90;;;;;;5097603;28;20857;-72
2022/12/14 02:45:35;;;;;;;17.23;14.47;;;0.90;99.90;;;;;;5096124;28;20744;-72
2022/12/14 02:48:05;;;;;;;19.47;15.23;;;0.70;99.90;;;;;;5096218;28;20379;-71
2022/12/14 02:50:42;;;;;;;17.93;15.63;;;0.70;99.90;;;;;;5096177;28;20447;-72
2022/12/14 02:53:27;;;;;;;20.60;15.90;;;0.70;99.90;;;;;;5095931;28;20548;-73
2022/12/14 02:55:58;;;;;;;23.90;17.97;;;0.70;99.90;;;;;;5093211;28;20422;-72
2022/12/14 02:58:33;;;;;;;19.90;15.80;;;0.90;99.90;;;;;;5094758;28;20398;-73
2022/12/14 03:00:59;;;;;;;18.63;15.77;;;0.90;99.90;;;;;;5096012;28;20971;-73
2022/12/14 03:03:25;;;;;;;19.33;15.53;;;0.90;99.90;;;;;;5094062;28;20450;-72
2022/12/14 03:05:58;;;;;;;19.80;15.70;;;1.10;99.90;;;;;;5095781;28;20161;-72
2022/12/14 03:08:26;;;;;;;18.13;14.60;;;1.20;99.90;;;;;;5094419;28;20165;-72
2022/12/14 03:10:57;;;;;;;18.70;14.80;;;1.10;99.90;;;;;;5095650;28;20455;-72
2022/12/14 03:13:45;;;;;;;22.47;16.43;;;0.80;99.90;;;;;;5095917;28;20390;-72
2022/12/14 03:16:18;;;;;;;21.93;16.20;;;0.70;99.90;;;;;;5095736;28;20430;-71
2022/12/14 03:18:55;;;;;;;18.23;15.80;;;0.70;99.90;;;;;;5095212;28;20380;-72
2022/12/14 03:21:26;;;;;;;21.30;17.70;;;0.70;99.90;;;;;;5095403;28;20383;-73
2022/12/14 03:23:54;;;;;;;20.63;15.97;;;0.80;99.90;;;;;;5094077;28;20445;-72
2022/12/14 03:26:26;;;;;;;18.87;16.40;;;0.80;99.90;;;;;;5093880;28;20415;-72
2022/12/14 03:29:14;;;;;;;20.57;16.03;;;1.00;99.90;;;;;;5094634;28;20418;-72
2022/12/14 03:31:57;;;;;;;18.33;15.60;;;0.90;99.90;;;;;;5055295;28;20636;-70
2022/12/14 03:34:32;;;;;;;20.77;16.60;;;0.70;99.90;;;;;;5055761;28;20388;-70
2022/12/14 03:37:09;;;;;;;21.67;17.50;;;0.50;99.90;;;;;;5054279;28;20416;-70
2022/12/14 03:39:36;;;;;;;23.50;17.37;;;0.50;99.90;;;;;;5055185;28;20415;-71
2022/12/14 03:42:15;;;;;;;21.70;16.10;;;0.40;99.90;;;;;;5055883;28;20483;-70
2022/12/14 03:45:02;;;;;;;25.07;19.40;;;0.40;99.90;;;;;;5055659;28;20405;-71
2022/12/14 03:47:59;;;;;;;23.30;18.03;;;0.30;99.90;;;;;;5055305;28;20407;-71
2022/12/14 03:51:03;;;;;;;19.43;16.60;;;0.50;99.90;;;;;;5054961;28;20784;-71
2022/12/14 03:53:37;;;;;;;24.07;17.87;;;0.70;99.90;;;;;;5042745;28;20412;-71
2022/12/14 03:56:20;;;;;;;19.87;17.77;;;0.80;99.90;;;;;;5094940;28;20383;-71
2022/12/14 03:59:10;;;;;;;23.10;18.33;;;0.80;99.90;;;;;;5095503;28;20426;-71
2022/12/14 04:01:59;;;;;;;19.13;17.13;;;0.80;99.90;;;;;;5093705;28;20407;-70
2022/12/14 04:04:48;;;;;;;20.30;16.93;;;0.70;99.90;;;;;;5094958;28;20389;-71
2022/12/14 04:07:40;;;;;;;21.67;18.33;;;0.80;99.90;;;;;;5095731;28;20383;-70
2022/12/14 04:18:55;;;;;;;20.33;15.90;;;0.80;99.90;;;;;;5095616;28;20763;-71
2022/12/14 04:18:55;;;;;;;20.00;16.87;;;0.80;99.90;;;;;;5075976;28;20375;-71
2022/12/14 04:21:33;;;;;;;22.90;16.90;;;0.80;99.90;;;;;;5074680;28;20412;-70
2022/12/14 04:27:14;;;;;;;25.30;19.30;;;0.60;99.90;;;;;;5097829;28;20386;-71
2022/12/14 04:29:58;;;;;;;22.07;18.40;;;0.60;99.90;;;;;;5096549;28;20441;-71
2022/12/14 04:32:50;;;;;;;25.63;17.30;;;0.70;99.90;;;;;;5098567;28;20438;-71
2022/12/14 04:35:23;;;;;;;25.80;20.30;;;0.80;99.90;;;;;;5097825;28;20521;-71
2022/12/14 04:38:01;;;;;;;20.43;18.00;;;0.50;99.90;;;;;;5095890;28;20425;-70
2022/12/14 04:40:32;;;;;;;24.93;18.47;;;0.60;99.90;;;;;;5093243;28;20430;-71
2022/12/14 04:43:05;;;;;;;23.23;18.10;;;0.60;99.90;;;;;;5095268;28;20553;-70
2022/12/14 04:45:42;;;;;;;21.07;17.00;;;0.60;99.90;;;;;;5095322;28;20387;-71
2022/12/14 04:48:26;;;;;;;27.07;20.57;;;0.70;99.90;;;;;;5095055;28;20391;-70
2022/12/14 04:50:59;;;;;;;23.03;19.00;;;0.50;99.90;;;;;;5094827;28;20952;-71
2022/12/14 04:53:29;;;;;;;21.97;19.13;;;0.80;99.90;;;;;;5094745;28;20719;-70
2022/12/14 04:56:21;;;;;;;23.80;18.60;;;0.90;99.90;;;;;;5094293;28;20403;-70
2022/12/14 04:58:47;;;;;;;20.63;16.80;;;0.90;99.90;;;;;;5076769;28;20427;-71
2022/12/14 05:01:41;;;;;;;23.43;18.63;;;1.10;99.90;;;;;;5074138;28;20456;-70
2022/12/14 05:04:39;;;;;;;21.43;18.17;;;1.20;99.90;;;;;;5073936;28;20479;-70
2022/12/14 05:07:18;;;;;;;22.20;17.50;;;1.30;99.90;;;;;;5060331;28;20458;-71
2022/12/14 05:09:51;;;;;;;23.87;19.90;;;1.20;99.90;;;;;;5072720;28;20443;-70
2022/12/14 05:12:39;;;;;;;24.30;19.70;;;1.20;99.90;;;;;;5073625;28;20444;-71
2022/12/14 05:15:22;;;;;;;22.00;18.50;;;1.20;99.90;;;;;;5074378;28;20762;-70
2022/12/14 05:17:48;;;;;;;24.60;20.10;;;1.10;99.90;;;;;;5074213;28;20376;-70
2022/12/14 05:20:17;;;;;;;24.03;17.83;;;1.20;99.90;;;;;;5074274;28;20424;-72
2022/12/14 05:22:43;;;;;;;24.77;18.93;;;1.20;99.90;;;;;;5074238;28;20425;-69
2022/12/14 05:25:09;;;;;;;29.40;19.50;;;0.90;99.90;;;;;;5079583;28;20415;-70
2022/12/14 05:27:35;;;;;;;22.70;17.90;;;1.00;99.90;;;;;;5054239;28;20404;-70
2022/12/14 05:30:00;;;;;;;25.40;19.60;;;1.10;99.90;;;;;;5052356;28;20544;-70
2022/12/14 05:32:27;;;;;;;28.23;21.57;;;1.00;99.90;;;;;;5052935;28;20198;-70
2022/12/14 05:34:53;;;;;;;27.20;20.53;;;1.00;99.90;;;;;;5054719;28;20226;-70
2022/12/14 05:37:18;;;;;;;22.90;18.77;;;0.90;99.90;;;;;;5058118;28;20451;-70
2022/12/14 05:39:44;;;;;;;24.53;18.60;;;1.10;99.90;;;;;;5093287;28;20189;-70
2022/12/14 05:42:10;;;;;;;23.30;19.10;;;1.10;99.90;;;;;;5093089;28;20181;-71
2022/12/14 05:44:35;;;;;;;24.57;20.83;;;1.30;99.90;;;;;;5093647;28;20248;-70
2022/12/14 05:47:01;;;;;;;27.37;21.40;;;1.40;99.90;;;;;;5093951;28;20178;-69
2022/12/14 05:49:26;;;;;;;25.47;20.67;;;1.40;99.90;;;;;;5093732;28;20709;-70
2022/12/14 05:51:52;;;;;;;26.00;19.93;;;1.40;99.90;;;;;;5094139;28;20197;-70
2022/12/14 05:54:17;;;;;;;23.83;18.70;;;1.30;99.90;;;;;;5093776;28;20533;-70
2022/12/14 05:56:43;;;;;;;24.70;20.63;;;1.40;99.90;;;;;;5080479;28;20174;-73
2022/12/14 05:59:14;;;;;;;27.10;22.10;;;1.40;99.90;;;;;;5064208;28;20181;-70
2022/12/14 06:01:40;;;;;;;25.80;21.93;;;1.40;99.90;;;;;;5074400;28;20226;-71
2022/12/14 06:04:06;;;;;;;26.33;20.50;;;1.20;99.90;;;;;;5073371;28;20412;-71
2022/12/14 06:06:32;;;;;;;26.13;20.07;;;1.10;99.90;;;;;;5073436;28;20400;-70
2022/12/14 06:08:57;;;;;;;26.77;21.83;;;1.10;99.90;;;;;;5073048;28;20204;-71
2022/12/14 06:11:23;;;;;;;27.27;21.50;;;0.90;99.90;;;;;;5073540;28;20198;-70
2022/12/14 06:13:50;;;;;;;31.23;21.80;;;0.90;99.90;;;;;;5071474;28;20169;-71
2022/12/14 06:16:21;;;;;;;27.70;21.97;;;0.90;99.90;;;;;;5073232;28;20752;-70
2022/12/14 06:18:49;;;;;;;29.40;22.37;;;0.80;99.90;;;;;;5055066;28;20412;-69
2022/12/14 06:21:16;;;;;;;25.77;21.70;;;0.80;99.90;;;;;;5052790;28;20440;-70
2022/12/14 06:23:42;;;;;;;28.40;21.73;;;1.00;99.90;;;;;;5057182;28;20458;-71
2022/12/14 06:26:09;;;;;;;31.07;24.70;;;0.90;99.90;;;;;;5076226;28;20416;-70
2022/12/14 06:28:36;;;;;;;29.30;23.30;;;0.70;99.90;;;;;;5077414;28;20408;-71
2022/12/14 06:31:02;;;;;;;27.43;22.57;;;0.90;99.90;;;;;;5077089;28;20464;-71
2022/12/14 06:33:28;;;;;;;31.13;22.93;;;1.00;99.90;;;;;;5075611;28;20450;-71
2022/12/14 06:35:54;;;;;;;32.63;25.10;;;1.10;99.90;;;;;;5076662;28;20557;-70
2022/12/14 06:38:20;;;;;;;30.57;24.57;;;1.20;99.90;;;;;;5076296;28;20431;-70
2022/12/14 06:40:46;;;;;;;28.60;25.10;;;1.20;99.90;;;;;;5074655;28;20190;-70
2022/12/14 06:43:11;;;;;;;32.10;24.77;;;1.30;99.90;;;;;;5077173;28;20465;-70
2022/12/14 06:45:37;;;;;;;30.87;24.87;;;1.20;99.90;;;;;;5073528;28;20550;-70
2022/12/14 06:48:03;;;;;;;30.47;24.70;;;1.30;99.90;;;;;;5068610;28;20433;-71
2022/12/14 06:50:29;;;;;;;39.47;25.70;;;1.30;99.90;;;;;;5065015;28;20428;-71
2022/12/14 06:52:55;;;;;;;34.80;24.67;;;1.20;99.90;;;;;;5066936;28;20404;-71
2022/12/14 06:55:22;;;;;;;33.43;26.17;;;1.00;99.90;;;;;;5067742;28;20455;-71
2022/12/14 06:57:51;;;;;;;33.80;27.30;;;0.90;99.90;;;;;;5097243;28;20478;-69
2022/12/14 07:00:18;;;;;;;31.37;24.90;;;0.80;99.90;;;;;;5086020;28;20425;-71
2022/12/14 07:02:43;;;;;;;33.67;25.17;;;1.00;99.90;;;;;;5065445;28;20832;-70
2022/12/14 07:05:09;;;;;;;29.73;24.20;;;1.10;99.90;;;;;;5067737;28;20397;-72
2022/12/14 07:07:35;;;;;;;36.70;29.00;;;1.20;99.90;;;;;;5066553;28;20300;-70
2022/12/14 07:10:01;;;;;;;32.13;25.37;;;1.30;99.90;;;;;;5066444;28;20243;-71
2022/12/14 07:12:27;;;;;;;30.10;25.53;;;1.40;99.90;;;;;;5063167;28;20460;-71
2022/12/14 07:14:55;;;;;;;40.00;29.10;;;1.30;99.90;;;;;;5065260;28;20171;-71
2022/12/14 07:17:21;;;;;;;38.10;26.77;;;1.30;99.90;;;;;;5067493;28;20188;-71
2022/12/14 07:19:47;;;;;;;33.60;26.53;;;1.40;99.90;;;;;;5066524;28;20946;-70
2022/12/14 07:22:13;;;;;;;36.47;28.13;;;1.30;99.90;;;;;;5072329;28;20177;-71
2022/12/14 07:24:40;;;;;;;32.83;24.30;;;1.00;99.90;;;;;;5082951;28;20419;-72
2022/12/14 07:27:06;;;;;;;36.90;27.00;;;1.00;99.90;;;;;;5092593;28;20494;-71
2022/12/14 07:29:31;;;;;;;35.10;26.47;;;0.90;99.90;;;;;;5072492;28;20954;-72
2022/12/14 07:31:57;;;;;;;31.57;25.30;;;0.90;99.90;;;;;;5066778;28;20455;-72
2022/12/14 07:34:23;;;;;;;35.73;28.20;;;0.90;99.90;;;;;;5062459;28;20166;-72
2022/12/14 07:36:50;;;;;;;33.37;26.30;;;1.00;99.90;;;;;;5066513;28;20186;-73
2022/12/14 07:39:16;;;;;;;33.37;24.87;;;1.00;99.90;;;;;;5065939;28;20193;-75
2022/12/14 07:41:43;;;;;;;32.60;25.40;;;1.00;99.90;;;;;;5065602;28;20405;-70
2022/12/14 07:44:09;;;;;;;33.13;24.63;;;1.20;99.90;;;;;;5055698;28;20405;-76
2022/12/14 07:46:35;;;;;;;32.97;26.57;;;1.30;99.90;;;;;;5055307;28;20397;-73
2022/12/14 07:49:02;;;;;;;34.47;26.00;;;1.30;99.90;;;;;;5055358;28;20957;-74
2022/12/14 07:51:31;;;;;;;34.70;23.97;;;1.50;99.90;;;;;;5075585;28;20204;-75
2022/12/14 07:53:57;;;;;;;32.13;24.77;;;1.60;99.90;;;;;;5084221;28;20742;-73
2022/12/14 07:56:29;;;;;;;35.60;27.43;;;1.60;99.90;;;;;;5082523;28;20404;-73
2022/12/14 07:58:56;;;;;;;35.43;26.77;;;1.50;99.90;;;;;;5079924;28;20429;-72
2022/12/14 08:01:27;;;;;;;32.70;26.30;;;1.50;99.90;;;;;;5077837;28;20429;-71
2022/12/14 08:03:56;;;;;;;34.57;27.03;;;1.50;99.90;;;;;;5077251;28;20419;-71
2022/12/14 08:06:24;;;;;;;32.13;25.43;;;1.40;99.90;;;;;;5080556;28;20453;-73
2022/12/14 08:08:51;;;;;;;40.37;28.40;;;1.40;99.90;;;;;;5076498;28;20487;-71
2022/12/14 08:11:17;;;;;;;35.67;28.10;;;1.40;99.90;;;;;;5076965;28;20451;-73
2022/12/14 08:13:43;;;;;;;31.43;25.23;;;1.40;99.90;;;;;;5078293;28;20448;-74
2022/12/14 08:16:14;;;;;;;36.17;28.93;;;1.40;99.90;;;;;;5077359;28;20398;-72
2022/12/14 08:18:40;;;;;;;31.50;25.37;;;1.40;99.90;;;;;;5076647;28;20416;-73
2022/12/14 08:21:07;;;;;;;32.20;25.80;;;1.50;99.90;;;;;;5076485;28;20443;-71
2022/12/14 08:23:33;;;;;;;33.67;26.33;;;1.70;99.90;;;;;;5072115;28;20791;-72
2022/12/14 08:26:00;;;;;;;39.97;29.63;;;1.70;99.90;;;;;;5072732;28;20417;-72
2022/12/14 08:28:28;;;;;;;33.93;26.33;;;1.50;99.90;;;;;;5071731;28;20533;-73
2022/12/14 08:30:54;;;;;;;34.93;28.23;;;1.50;99.90;;;;;;5086109;28;20463;-75
2022/12/14 08:33:21;;;;;;;37.23;27.10;;;1.60;99.90;;;;;;5094191;28;20392;-73
2022/12/14 08:35:47;;;;;;;35.07;28.00;;;1.70;99.90;;;;;;5093549;28;20407;-71
2022/12/14 08:38:12;;;;;;;33.27;25.60;;;1.70;99.90;;;;;;5094102;28;20403;-72
2022/12/14 08:40:38;;;;;;;37.03;28.17;;;1.80;99.90;;;;;;5093847;28;20423;-72
2022/12/14 08:43:05;;;;;;;31.30;26.00;;;2.10;99.90;;;;;;5092990;28;20169;-75
2022/12/14 08:45:31;;;;;;;36.77;28.50;;;2.20;99.90;;;;;;5095769;28;20453;-76
2022/12/14 08:47:58;;;;;;;31.97;26.47;;;2.30;99.90;;;;;;5092474;28;20395;-75
2022/12/14 08:50:24;;;;;;;31.10;26.33;;;2.40;99.90;;;;;;5093401;28;20423;-72
2022/12/14 08:52:49;;;;;;;32.23;24.67;;;2.40;99.90;;;;;;5094479;28;20402;-75
2022/12/14 08:55:15;;;;;;;28.43;24.77;;;2.40;99.90;;;;;;5094913;28;20893;-76
2022/12/14 08:57:41;;;;;;;29.17;23.90;;;2.40;99.90;;;;;;5092642;28;20252;-77
2022/12/14 09:00:10;;;;;;;33.07;27.53;;;2.40;99.90;;;;;;5094001;28;20204;-75
2022/12/14 09:02:36;;;;;;;32.47;25.40;;;2.50;99.90;;;;;;5092933;28;20196;-75
2022/12/14 09:05:02;;;;;;;34.97;27.73;;;2.60;99.90;;;;;;5093672;28;20399;-73
2022/12/14 09:07:29;;;;;;;33.93;26.77;;;2.50;99.90;;;;;;5094534;28;20411;-73
2022/12/14 09:09:55;;;;;;;37.53;29.13;;;2.50;99.90;;;;;;5094233;28;20431;-73
2022/12/14 09:12:20;;;;;;;32.27;25.30;;;2.60;99.90;;;;;;5091862;28;20477;-75
2022/12/14 09:14:48;;;;;;;29.13;25.30;;;2.70;99.90;;;;;;5089618;28;20530;-73
2022/12/14 09:17:14;;;;;;;31.20;25.07;;;2.60;99.90;;;;;;5071967;28;20165;-73
2022/12/14 09:19:40;;;;;;;33.43;26.53;;;2.50;99.90;;;;;;5073201;28;20985;-72
2022/12/14 09:22:05;;;;;;;35.07;26.93;;;2.50;99.90;;;;;;5073525;28;20447;-72
2022/12/14 09:24:31;;;;;;;39.27;27.63;;;2.40;99.90;;;;;;5079145;28;20178;-71
2022/12/14 09:26:59;;;;;;;35.80;28.47;;;2.40;99.90;;;;;;5093484;28;20655;-71
2022/12/14 09:29:26;;;;;;;41.00;31.93;;;2.30;99.90;;;;;;5094525;28;20196;-73
2022/12/14 09:31:51;;;;;;;40.03;30.97;;;2.20;99.90;;;;;;5092389;28;20484;-73
2022/12/14 09:34:18;;;;;;;41.90;31.77;;;2.20;99.90;;;;;;5093601;28;20490;-73
2022/12/14 09:36:43;;;;;;;36.17;27.40;;;2.30;99.90;;;;;;5094090;28;20157;-74
2022/12/14 09:39:13;;;;;;;35.27;27.97;;;2.20;99.90;;;;;;5093651;28;20403;-75
2022/12/14 09:41:54;;;;;;;34.93;27.43;;;2.30;99.90;;;;;;5095387;28;20204;-73
2022/12/14 09:44:23;;;;;;;37.17;27.33;;;2.30;99.90;;;;;;5094870;28;20415;-74
2022/12/14 09:47:20;;;;;;;33.53;26.60;;;2.30;99.90;;;;;;5094167;28;20399;-73
2022/12/14 09:49:57;;;;;;;35.47;27.37;;;2.20;99.90;;;;;;5095088;28;20447;-74
2022/12/14 09:52:59;;;;;;;40.73;30.00;;;2.20;99.90;;;;;;5093245;28;20442;-74
2022/12/14 09:55:30;;;;;;;33.30;26.63;;;2.40;99.90;;;;;;5071824;28;20411;-76
2022/12/14 09:58:04;;;;;;;34.97;29.30;;;2.30;99.90;;;;;;5096478;28;20383;-74
2022/12/14 10:00:34;;;;;;;39.27;28.20;;;2.40;99.90;;;;;;5098107;28;20430;-77
2022/12/14 10:03:11;;;;;;;32.13;25.73;;;2.40;99.90;;;;;;5093816;28;20553;-74
2022/12/14 10:06:01;;;;;;;37.77;28.20;;;2.50;99.90;;;;;;5060424;28;20865;-76
2022/12/14 10:08:34;;;;;;;37.40;28.03;;;2.50;99.90;;;;;;5062352;28;20909;-73
2022/12/14 10:11:20;;;;;;;35.47;28.10;;;2.50;99.90;;;;;;5062648;28;20452;-74
2022/12/14 10:14:05;;;;;;;36.37;28.17;;;2.60;99.90;;;;;;5064051;28;20393;-75
2022/12/14 10:16:35;;;;;;;31.87;25.43;;;2.50;99.90;;;;;;5061296;28;20875;-75
2022/12/14 10:19:25;;;;;;;38.80;29.10;;;2.50;99.90;;;;;;5060064;28;20773;-72
2022/12/14 10:22:01;;;;;;;41.13;31.40;;;2.50;99.90;;;;;;5060566;28;20488;-75
2022/12/14 10:24:36;;;;;;;38.43;30.20;;;2.70;99.90;;;;;;5062026;28;20393;-74
2022/12/14 10:27:06;;;;;;;42.80;27.33;;;2.70;99.90;;;;;;5059025;28;20480;-75
2022/12/14 10:29:41;;;;;;;33.23;28.97;;;2.70;99.90;;;;;;5060624;28;20437;-74
2022/12/14 10:32:18;;;;;;;34.57;28.70;;;2.70;99.90;;;;;;5097770;28;20967;-74
2022/12/14 10:34:43;;;;;;;42.87;31.37;;;2.80;99.90;;;;;;5100659;28;20395;-73
2022/12/14 10:37:34;;;;;;;39.50;30.70;;;2.60;99.90;;;;;;5100979;28;20483;-73
2022/12/14 10:40:09;;;;;;;43.10;31.57;;;2.60;99.90;;;;;;5100427;28;20234;-74
2022/12/14 10:42:56;;;;;;;40.80;31.10;;;2.60;99.90;;;;;;5101057;28;20398;-75
2022/12/14 10:45:50;;;;;;;34.60;28.80;;;2.60;99.90;;;;;;5099394;28;20943;-74
2022/12/14 10:48:51;;;;;;;36.70;27.30;;;2.80;99.90;;;;;;5098414;28;20395;-74
2022/12/14 10:51:38;;;;;;;35.80;29.60;;;2.80;99.90;;;;;;5098189;28;20519;-74
2022/12/14 10:54:15;;;;;;;40.67;30.37;;;2.80;99.90;;;;;;5097574;28;20470;-73
2022/12/14 10:56:42;;;;;;;36.07;29.00;;;2.90;99.90;;;;;;5094645;28;20415;-75
2022/12/14 10:59:17;;;;;;;41.53;32.20;;;3.00;99.90;;;;;;5096744;28;20400;-76
2022/12/14 11:01:44;;;;;;;39.30;29.27;;;2.70;99.90;;;;;;5096020;28;20430;-74
2022/12/14 11:04:28;;;;;;;39.80;30.30;;;2.80;99.90;;;;;;5094660;28;20423;-74
2022/12/14 11:06:54;;;;;;;37.00;30.20;;;3.00;99.90;;;;;;5096270;28;20380;-73
2022/12/14 11:09:22;;;;;;;36.53;29.30;;;3.20;99.90;;;;;;5094648;28;20859;-74
2022/12/14 11:11:47;;;;;;;33.37;28.73;;;3.20;99.90;;;;;;5096420;28;20965;-74
2022/12/14 11:14:19;;;;;;;37.90;29.60;;;2.90;99.90;;;;;;5096650;28;20395;-73
2022/12/14 11:16:44;;;;;;;32.90;26.90;;;2.70;99.90;;;;;;5094991;28;20162;-73
2022/12/14 11:19:25;;;;;;;32.93;26.87;;;2.80;99.90;;;;;;5095588;28;20826;-75
2022/12/14 11:22:12;;;;;;;31.67;26.40;;;3.10;99.90;;;;;;5095988;28;20161;-76
2022/12/14 11:24:47;;;;;;;37.70;30.10;;;3.20;99.90;;;;;;5096545;28;20412;-75
2022/12/14 11:27:17;;;;;;;35.83;29.53;;;3.30;99.90;;;;;;5096628;28;20406;-75
2022/12/14 11:29:46;;;;;;;37.97;29.43;;;3.30;99.90;;;;;;5080301;28;20486;-74
2022/12/14 11:32:22;;;;;;;33.57;26.67;;;3.40;99.90;;;;;;5092220;28;20786;-74
2022/12/14 11:34:55;;;;;;;34.73;29.20;;;3.30;99.90;;;;;;5096473;28;20890;-74
2022/12/14 11:37:27;;;;;;;31.33;26.67;;;3.40;99.90;;;;;;5094516;28;20388;-74
2022/12/14 11:39:58;;;;;;;40.27;30.70;;;3.10;99.90;;;;;;5095094;28;20805;-74
2022/12/14 11:42:25;;;;;;;37.07;29.67;;;3.20;99.90;;;;;;5095267;28;20770;-74
2022/12/14 11:44:51;;;;;;;41.80;30.53;;;3.30;99.90;;;;;;5096214;28;20520;-75
2022/12/14 11:47:27;;;;;;;35.63;29.30;;;3.10;99.90;;;;;;5095189;28;21000;-74
2022/12/14 11:49:54;;;;;;;39.77;31.63;;;3.30;99.90;;;;;;5094069;28;20427;-72
2022/12/14 11:52:36;;;;;;;43.60;35.07;;;3.40;99.90;;;;;;5097040;28;20446;-74
2022/12/14 11:55:14;;;;;;;42.63;34.00;;;3.50;99.90;;;;;;5095527;28;20376;-74
2022/12/14 11:57:54;;;;;;;38.90;31.70;;;3.60;99.90;;;;;;5093685;28;20443;-74
2022/12/14 12:00:27;;;;;;;41.20;34.03;;;3.50;99.90;;;;;;5095243;28;20489;-75
2022/12/14 12:03:05;;;;;;;43.03;31.23;;;3.60;99.90;;;;;;5095027;28;20494;-76
2022/12/14 12:05:32;;;;;;;36.87;30.57;;;3.60;99.90;;;;;;5091957;28;20395;-75
2022/12/14 12:08:01;;;;;;;35.30;28.40;;;3.70;99.90;;;;;;5074735;28;20495;-75
2022/12/14 12:10:38;;;;;;;38.00;31.33;;;3.50;99.90;;;;;;5074457;28;20424;-76
2022/12/14 12:13:15;;;;;;;39.40;30.80;;;3.50;99.90;;;;;;5074723;28;20389;-75
2022/12/14 12:15:46;;;;;;;40.00;33.17;;;3.60;99.90;;;;;;5074500;28;20456;-75
2022/12/14 12:18:39;;;;;;;40.80;32.37;;;3.20;99.90;;;;;;5074015;28;20393;-75
2022/12/14 12:21:14;;;;;;;40.50;31.00;;;3.00;99.90;;;;;;5072804;28;20424;-74
2022/12/14 12:23:50;;;;;;;44.70;31.67;;;2.80;99.90;;;;;;5074218;28;20414;-75
2022/12/14 12:26:26;;;;;;;46.00;34.00;;;2.30;99.90;;;;;;5072776;28;20503;-75
2022/12/14 12:29:11;;;;;;;45.40;34.47;;;2.20;99.90;;;;;;5072953;28;20442;-75
2022/12/14 12:31:44;;;;;;;44.27;33.40;;;2.30;99.90;;;;;;5083817;28;20458;-73
2022/12/14 12:34:16;;;;;;;42.50;32.93;;;2.20;99.90;;;;;;5094302;28;20516;-76
2022/12/14 12:36:43;;;;;;;37.40;30.00;;;2.10;99.90;;;;;;5094608;28;20386;-71
2022/12/14 12:39:17;;;;;;;55.17;40.90;;;2.30;99.90;;;;;;5093708;28;20507;-71
2022/12/14 12:42:05;;;;;;;51.70;38.00;;;2.50;99.90;;;;;;5094036;28;20403;-73
2022/12/14 12:44:39;;;;;;;46.10;35.50;;;2.50;99.90;;;;;;5092811;28;20411;-73
2022/12/14 12:47:46;;;;;;;49.23;36.97;;;2.70;99.90;;;;;;5093374;28;20387;-74
2022/12/14 12:50:20;;;;;;;43.70;33.73;;;2.80;99.90;;;;;;5051586;28;20436;-75
2022/12/14 12:52:48;;;;;;;43.17;33.27;;;2.40;99.90;;;;;;5051758;28;20456;-70
2022/12/14 12:55:16;;;;;;;43.13;33.60;;;2.10;99.90;;;;;;5075436;28;20940;-74
2022/12/14 12:57:46;;;;;;;46.03;36.17;;;2.00;99.90;;;;;;5093828;28;20480;-73
2022/12/14 13:00:18;;;;;;;46.63;34.00;;;1.90;99.90;;;;;;5093458;28;20754;-75
2022/12/14 13:02:58;;;;;;;43.38;36.08;;;2.00;99.90;;;;;;5093282;28;20813;-75
2022/12/14 13:05:27;;;;;;;51.30;37.90;;;2.20;99.90;;;;;;5094405;28;20615;-74
2022/12/14 13:08:00;;;;;;;42.90;34.80;;;2.10;99.90;;;;;;5094795;28;20403;-73
2022/12/14 13:10:39;;;;;;;48.10;34.80;;;2.00;99.90;;;;;;5094746;28;20425;-73